createdAt,value
2023-05-20T00:02:27.398Z,21.00
2023-05-20T00:05:49.760Z,21.00
2023-05-20T00:09:12.030Z,21.00
2023-05-20T00:12:35.209Z,21.00
2023-05-20T00:15:57.556Z,21.00
2023-05-20T00:19:19.907Z,21.00
2023-05-20T00:22:42.267Z,21.00
2023-05-20T00:26:04.598Z,21.00
2023-05-20T00:29:28.465Z,21.00
2023-05-20T00:32:50.913Z,21.00
2023-05-20T00:36:13.258Z,21.00
2023-05-20T00:39:35.630Z,21.00
2023-05-20T00:42:57.962Z,20.90
2023-05-20T00:46:20.655Z,20.90
2023-05-20T00:49:43.662Z,20.90
2023-05-20T00:53:06.691Z,20.90
2023-05-20T00:56:29.940Z,20.90
2023-05-20T00:59:52.694Z,20.90
2023-05-20T01:03:15.830Z,20.90
2023-05-20T01:06:40.168Z,20.90
2023-05-20T01:10:02.824Z,20.90
2023-05-20T01:13:31.331Z,20.90
2023-05-20T01:16:55.669Z,20.90
2023-05-20T01:20:18.957Z,20.90
2023-05-20T01:23:42.044Z,20.90
2023-05-20T01:27:05.370Z,20.90
2023-05-20T01:30:30.792Z,20.90
2023-05-20T01:33:56.483Z,20.80
2023-05-20T01:37:20.072Z,20.90
2023-05-20T01:40:43.635Z,20.80
2023-05-20T01:44:07.136Z,20.80
2023-05-20T01:47:31.348Z,20.80
2023-05-20T01:50:53.693Z,20.80
2023-05-20T01:54:15.985Z,20.80
2023-05-20T01:57:38.244Z,20.80
2023-05-20T02:01:01.643Z,20.80
2023-05-20T02:04:24.033Z,20.80
2023-05-20T02:07:46.345Z,20.80
2023-05-20T02:11:08.818Z,20.80
2023-05-20T02:14:32.386Z,20.80
2023-05-20T02:17:54.919Z,20.80
2023-05-20T02:21:17.395Z,20.80
2023-05-20T02:24:39.773Z,20.80
2023-05-20T02:28:05.672Z,20.80
2023-05-20T02:31:28.048Z,20.80
2023-05-20T02:34:50.836Z,20.80
2023-05-20T02:38:13.519Z,20.80
2023-05-20T02:41:36.300Z,20.80
2023-05-20T02:44:58.884Z,20.70
2023-05-20T02:48:21.172Z,20.80
2023-05-20T02:51:43.452Z,20.80
2023-05-20T02:55:06.368Z,20.70
2023-05-20T02:58:29.423Z,20.70
2023-05-20T03:01:51.850Z,20.80
2023-05-20T03:05:14.597Z,20.70
2023-05-20T03:08:39.626Z,20.70
2023-05-20T03:12:02.049Z,20.80
2023-05-20T03:15:26.508Z,20.80
2023-05-20T03:18:49.784Z,20.70
2023-05-20T03:22:12.810Z,20.70
2023-05-20T03:25:35.969Z,20.70
2023-05-20T03:28:58.631Z,20.70
2023-05-20T03:32:21.334Z,20.70
2023-05-20T03:35:43.593Z,20.70
2023-05-20T03:39:06.026Z,20.70
2023-05-20T03:42:29.024Z,20.70
2023-05-20T03:45:51.703Z,20.70
2023-05-20T03:49:13.993Z,20.70
2023-05-20T03:52:37.167Z,20.70
2023-05-20T03:56:01.394Z,20.60
2023-05-20T03:59:24.134Z,20.70
2023-05-20T04:02:46.473Z,20.60
2023-05-20T04:06:13.987Z,20.60
2023-05-20T04:09:38.260Z,20.70
2023-05-20T04:13:00.714Z,20.70
2023-05-20T04:16:23.108Z,20.70
2023-05-20T04:19:46.229Z,20.60
2023-05-20T04:23:08.801Z,20.70
2023-05-20T04:26:31.661Z,20.70
2023-05-20T04:29:54.990Z,20.60
2023-05-20T04:33:18.588Z,20.60
2023-05-20T04:36:40.900Z,20.60
2023-05-20T04:40:06.658Z,20.60
2023-05-20T04:43:33.813Z,20.60
2023-05-20T04:46:57.978Z,20.60
2023-05-20T04:50:21.277Z,20.60
2023-05-20T04:53:46.261Z,20.60
2023-05-20T04:57:08.543Z,20.60
2023-05-20T05:00:30.814Z,20.60
2023-05-20T05:03:53.111Z,20.50
2023-05-20T05:07:16.772Z,20.50
2023-05-20T05:10:39.919Z,20.60
2023-05-20T05:14:02.891Z,20.50
2023-05-20T05:17:25.544Z,20.50
2023-05-20T05:20:47.925Z,20.50
2023-05-20T05:24:11.019Z,20.60
2023-05-20T05:27:33.777Z,20.50
2023-05-20T05:30:56.724Z,20.50
2023-05-20T05:34:19.076Z,20.50
2023-05-20T05:37:41.428Z,20.50
2023-05-20T05:41:05.302Z,20.50
2023-05-20T05:44:28.306Z,20.50
2023-05-20T05:47:50.714Z,20.60
2023-05-20T05:51:13.372Z,20.50
2023-05-20T05:54:35.731Z,20.50
2023-05-20T05:57:59.385Z,20.50
2023-05-20T06:01:23.858Z,20.50
2023-05-20T06:04:46.224Z,20.50
2023-05-20T06:08:08.796Z,20.50
2023-05-20T06:11:31.971Z,20.50
2023-05-20T06:14:54.351Z,20.60
2023-05-20T06:18:16.765Z,20.60
2023-05-20T06:21:39.298Z,20.70
2023-05-20T06:25:02.505Z,20.60
2023-05-20T06:28:30.029Z,20.70
2023-05-20T06:31:52.918Z,20.80
2023-05-20T06:35:15.573Z,20.80
2023-05-20T06:38:38.491Z,20.90
2023-05-20T06:42:01.587Z,21.00
2023-05-20T06:45:25.423Z,21.00
2023-05-20T06:48:51.862Z,21.10
2023-05-20T06:52:14.421Z,21.10
2023-05-20T06:55:38.426Z,21.10
2023-05-20T06:59:01.220Z,21.20
2023-05-20T07:02:25.667Z,21.20
2023-05-20T07:05:50.666Z,21.20
2023-05-20T07:09:14.362Z,21.20
2023-05-20T07:12:37.072Z,21.30
2023-05-20T07:16:00.203Z,21.30
2023-05-20T07:19:23.387Z,21.30
2023-05-20T07:22:46.354Z,21.40
2023-05-20T07:26:12.475Z,21.50
2023-05-20T07:29:38.124Z,21.50
2023-05-20T07:33:00.670Z,21.60
2023-05-20T07:36:23.237Z,21.70
2023-05-20T07:39:47.244Z,21.50
2023-05-20T07:43:09.865Z,21.50
2023-05-20T07:46:33.153Z,21.60
2023-05-20T07:49:55.774Z,21.70
2023-05-20T07:53:19.242Z,21.70
2023-05-20T07:56:41.516Z,21.70
2023-05-20T08:00:06.334Z,21.60
2023-05-20T08:03:39.324Z,21.60
2023-05-20T08:07:06.761Z,21.60
2023-05-20T08:10:46.892Z,21.50
2023-05-20T08:14:09.614Z,21.50
2023-05-20T08:17:38.793Z,21.30
2023-05-20T08:21:01.646Z,21.00
2023-05-20T08:24:24.636Z,20.80
2023-05-20T08:27:46.938Z,20.70
2023-05-20T08:31:10.864Z,20.60
2023-05-20T08:34:33.295Z,20.50
2023-05-20T08:37:56.113Z,20.70
2023-05-20T08:41:18.574Z,20.80
2023-05-20T08:44:44.807Z,20.80
2023-05-20T08:48:07.597Z,20.80
2023-05-20T08:51:32.842Z,20.90
2023-05-20T08:54:55.339Z,20.90
2023-05-20T08:58:19.409Z,21.00
2023-05-20T09:01:45.913Z,21.00
2023-05-20T09:05:11.089Z,21.00
2023-05-20T09:08:34.155Z,21.00
2023-05-20T09:11:56.554Z,21.00
2023-05-20T09:15:18.842Z,21.00
2023-05-20T09:18:41.675Z,21.00
2023-05-20T09:22:05.155Z,21.00
2023-05-20T09:25:27.571Z,21.00
2023-05-20T09:28:49.890Z,21.10
2023-05-20T09:32:14.096Z,21.20
2023-05-20T09:35:39.819Z,21.30
2023-05-20T09:39:05.168Z,21.30
2023-05-20T09:42:35.315Z,21.40
2023-05-20T09:45:59.600Z,21.50
2023-05-20T09:49:23.609Z,21.50
2023-05-20T09:52:46.955Z,21.50
2023-05-20T09:56:09.332Z,21.50
2023-05-20T09:59:32.684Z,21.50
2023-05-20T10:02:55.171Z,21.60
2023-05-20T10:07:06.592Z,21.50
2023-05-20T10:10:50.435Z,21.60
2023-05-20T10:14:21.605Z,21.50
2023-05-20T10:18:16.402Z,21.50
2023-05-20T10:21:38.792Z,21.50
2023-05-20T10:25:06.794Z,21.60
2023-05-20T10:28:31.150Z,21.60
2023-05-20T10:31:53.874Z,21.60
2023-05-20T10:35:22.499Z,21.60
2023-05-20T10:38:58.435Z,21.60
2023-05-20T10:42:29.641Z,21.60
2023-05-20T10:45:57.447Z,21.60
2023-05-20T10:49:22.308Z,21.60
2023-05-20T10:52:47.018Z,21.60
2023-05-20T10:56:19.784Z,21.60
2023-05-20T10:59:42.390Z,21.60
2023-05-20T11:03:06.874Z,21.60
2023-05-20T11:06:29.862Z,21.60
2023-05-20T11:09:52.327Z,21.60
2023-05-20T11:13:15.507Z,21.60
2023-05-20T11:16:37.997Z,21.70
2023-05-20T11:20:01.089Z,21.60
2023-05-20T11:23:23.760Z,21.60
2023-05-20T11:26:46.027Z,21.60
2023-05-20T11:30:09.031Z,21.60
2023-05-20T11:33:31.421Z,21.60
2023-05-20T11:36:57.866Z,21.50
2023-05-20T11:40:27.041Z,21.60
2023-05-20T11:43:59.587Z,21.60
2023-05-20T11:47:27.767Z,21.60
2023-05-20T11:50:50.224Z,21.60
2023-05-20T11:54:12.699Z,21.50
2023-05-20T11:57:35.014Z,21.50
2023-05-20T12:01:05.634Z,21.50
2023-05-20T12:04:40.202Z,21.40
2023-05-20T12:08:02.753Z,21.50
2023-05-20T12:11:25.121Z,21.50
2023-05-20T12:14:47.349Z,21.50
2023-05-20T12:18:10.094Z,21.50
2023-05-20T12:21:32.755Z,21.50
2023-05-20T12:24:55.536Z,21.50
2023-05-20T12:28:17.933Z,21.50
2023-05-20T12:31:40.380Z,21.50
2023-05-20T12:35:03.010Z,21.60
2023-05-20T12:38:25.359Z,21.50
2023-05-20T12:41:47.758Z,21.50
2023-05-20T12:45:10.430Z,21.60
2023-05-20T12:48:32.829Z,21.60
2023-05-20T12:51:55.345Z,21.60
2023-05-20T12:55:17.823Z,21.70
2023-05-20T12:58:40.106Z,21.70
2023-05-20T13:02:02.570Z,21.70
2023-05-20T13:05:25.127Z,21.70
2023-05-20T13:08:47.430Z,21.70
2023-05-20T13:12:10.046Z,21.70
2023-05-20T13:15:33.515Z,21.70
2023-05-20T13:18:56.084Z,21.70
2023-05-20T13:22:18.573Z,21.70
2023-05-20T13:25:41.169Z,21.70
2023-05-20T13:29:03.542Z,21.60
2023-05-20T13:32:25.846Z,21.60
2023-05-20T13:35:48.281Z,21.70
2023-05-20T13:39:11.279Z,21.70
2023-05-20T13:42:33.696Z,21.70
2023-05-20T13:45:56.141Z,21.70
2023-05-20T13:49:18.827Z,21.70
2023-05-20T13:52:41.141Z,21.60
2023-05-20T13:56:03.901Z,21.50
2023-05-20T13:59:27.424Z,21.60
2023-05-20T14:02:49.805Z,21.60
2023-05-20T14:06:12.294Z,21.50
2023-05-20T14:09:34.566Z,21.50
2023-05-20T14:12:59.000Z,21.40
2023-05-20T14:16:21.377Z,21.40
2023-05-20T14:19:43.751Z,21.40
2023-05-20T14:23:06.036Z,21.50
2023-05-20T14:26:28.690Z,21.40
2023-05-20T14:29:51.131Z,21.40
2023-05-20T14:33:13.480Z,21.40
2023-05-20T14:36:35.829Z,21.50
2023-05-20T14:39:58.269Z,21.50
2023-05-20T14:43:21.419Z,21.60
2023-05-20T14:46:43.715Z,21.50
2023-05-20T14:50:07.181Z,21.50
2023-05-20T14:53:29.523Z,21.40
2023-05-20T14:56:52.085Z,21.50
2023-05-20T15:00:14.618Z,21.50
2023-05-20T15:03:36.971Z,21.30
2023-05-20T15:06:59.394Z,21.20
2023-05-20T15:10:21.864Z,21.20
2023-05-20T15:13:46.461Z,21.20
2023-05-20T15:17:09.061Z,21.20
2023-05-20T15:20:31.524Z,21.20
2023-05-20T15:23:53.814Z,21.10
2023-05-20T15:27:16.250Z,21.20
2023-05-20T15:30:38.593Z,21.20
2023-05-20T15:34:00.994Z,21.30
2023-05-20T15:37:23.257Z,21.40
2023-05-20T15:40:45.664Z,21.30
2023-05-20T15:44:08.449Z,21.40
2023-05-20T15:47:30.859Z,21.40
2023-05-20T15:50:53.142Z,21.50
2023-05-20T15:54:15.494Z,21.50
2023-05-20T15:57:37.794Z,21.50
2023-05-20T16:01:00.241Z,21.60
2023-05-20T16:04:22.707Z,21.60
2023-05-20T16:07:46.843Z,21.60
2023-05-20T16:11:09.551Z,21.50
2023-05-20T16:14:31.933Z,21.70
2023-05-20T16:17:54.289Z,21.80
2023-05-20T16:21:16.635Z,21.70
2023-05-20T16:24:39.057Z,21.70
2023-05-20T16:28:01.442Z,21.70
2023-05-20T16:31:23.920Z,21.70
2023-05-20T16:34:47.558Z,21.70
2023-05-20T16:38:09.984Z,21.70
2023-05-20T16:41:32.450Z,21.70
2023-05-20T16:44:54.807Z,21.70
2023-05-20T16:48:17.170Z,21.70
2023-05-20T16:51:39.482Z,21.70
2023-05-20T16:55:04.734Z,21.80
2023-05-20T16:58:26.966Z,21.80
2023-05-20T17:01:49.275Z,21.80
2023-05-20T17:05:11.599Z,21.80
2023-05-20T17:08:33.963Z,21.90
2023-05-20T17:11:56.264Z,21.80
2023-05-20T17:15:18.573Z,21.90
2023-05-20T17:18:41.110Z,22.00
2023-05-20T17:22:03.494Z,22.00
2023-05-20T17:25:25.861Z,22.00
2023-05-20T17:28:48.239Z,22.00
2023-05-20T17:32:12.052Z,22.00
2023-05-20T17:35:34.476Z,22.00
2023-05-20T17:38:56.946Z,22.00
2023-05-20T17:42:19.318Z,22.00
2023-05-20T17:45:41.584Z,22.00
2023-05-20T17:49:03.834Z,22.10
2023-05-20T17:52:27.123Z,22.00
2023-05-20T17:55:49.544Z,22.10
2023-05-20T17:59:11.922Z,22.10
2023-05-20T18:02:34.350Z,22.10
2023-05-20T18:05:56.779Z,22.10
2023-05-20T18:09:19.057Z,22.10
2023-05-20T18:12:42.700Z,22.10
2023-05-20T18:16:05.548Z,22.20
2023-05-20T18:19:28.024Z,22.20
2023-05-20T18:22:52.371Z,22.20
2023-05-20T18:26:15.266Z,22.20
2023-05-20T18:29:37.557Z,22.20
2023-05-20T18:32:59.973Z,22.10
2023-05-20T18:36:22.332Z,22.10
2023-05-20T18:39:44.613Z,22.00
2023-05-20T18:43:06.902Z,22.00
2023-05-20T18:46:29.276Z,22.00
2023-05-20T18:49:51.616Z,22.00
2023-05-20T18:53:13.901Z,22.00
2023-05-20T18:56:36.323Z,22.00
2023-05-20T18:59:58.686Z,22.00
2023-05-20T19:03:23.431Z,22.00
2023-05-20T19:06:45.813Z,22.00
2023-05-20T19:10:08.822Z,22.00
2023-05-20T19:13:31.237Z,22.00
2023-05-20T19:16:53.773Z,22.00
2023-05-20T19:20:16.085Z,22.00
2023-05-20T19:23:38.432Z,22.00
2023-05-20T19:27:01.812Z,21.90
2023-05-20T19:30:24.070Z,22.00
2023-05-20T19:33:48.310Z,21.90
2023-05-20T19:37:10.861Z,21.90
2023-05-20T19:40:33.339Z,22.00
2023-05-20T19:43:55.656Z,22.00
2023-05-20T19:47:17.982Z,21.90
2023-05-20T19:50:40.360Z,21.90
2023-05-20T19:54:02.695Z,21.90
2023-05-20T19:57:25.027Z,21.80
2023-05-20T20:00:47.376Z,21.80
2023-05-20T20:04:09.647Z,21.80
2023-05-20T20:07:32.655Z,21.80
2023-05-20T20:10:55.024Z,21.80
2023-05-20T20:14:17.330Z,21.70
2023-05-20T20:17:46.040Z,21.70
2023-05-20T20:21:09.316Z,21.70
2023-05-20T20:24:31.580Z,21.70
2023-05-20T20:27:53.908Z,21.70
2023-05-20T20:31:16.208Z,21.80
2023-05-20T20:34:38.531Z,21.70
2023-05-20T20:38:01.427Z,21.70
2023-05-20T20:41:23.697Z,21.70
2023-05-20T20:44:48.365Z,21.70
2023-05-20T20:48:10.858Z,21.70
2023-05-20T20:51:33.218Z,21.70
2023-05-20T20:54:57.039Z,21.70
2023-05-20T20:58:19.450Z,21.60
2023-05-20T21:01:41.980Z,21.70
2023-05-20T21:05:04.508Z,21.70
2023-05-20T21:08:27.821Z,21.70
2023-05-20T21:11:50.158Z,21.60
2023-05-20T21:15:12.861Z,21.60
2023-05-20T21:18:35.154Z,21.60
2023-05-20T21:21:59.307Z,21.60
2023-05-20T21:25:21.695Z,21.60
2023-05-20T21:28:44.056Z,21.60
2023-05-20T21:32:06.714Z,21.60
2023-05-20T21:35:29.036Z,21.60
2023-05-20T21:38:51.426Z,21.50
2023-05-20T21:42:13.750Z,21.50
2023-05-20T21:45:36.463Z,21.50
2023-05-20T21:48:59.025Z,21.50
2023-05-20T21:52:21.320Z,21.50
2023-05-20T21:55:43.555Z,21.50
2023-05-20T21:59:05.925Z,21.50
2023-05-20T22:02:28.259Z,21.50
2023-05-20T22:05:50.626Z,21.50
2023-05-20T22:09:13.014Z,21.50
2023-05-20T22:12:38.419Z,21.40
2023-05-20T22:16:02.039Z,21.40
2023-05-20T22:19:24.486Z,21.40
2023-05-20T22:22:46.971Z,21.50
2023-05-20T22:26:09.987Z,21.50
2023-05-20T22:29:32.717Z,21.50
2023-05-20T22:32:55.027Z,21.40
2023-05-20T22:36:17.326Z,21.40
2023-05-20T22:39:39.687Z,21.40
2023-05-20T22:43:01.954Z,21.40
2023-05-20T22:46:25.188Z,21.40
2023-05-20T22:49:47.460Z,21.40
2023-05-20T22:53:09.806Z,21.40
2023-05-20T22:56:32.599Z,21.40
2023-05-20T22:59:55.593Z,21.40
2023-05-20T23:03:17.817Z,21.40
2023-05-20T23:06:40.190Z,21.40
2023-05-20T23:10:02.687Z,21.40
2023-05-20T23:13:25.012Z,21.40
2023-05-20T23:16:47.516Z,21.30
2023-05-20T23:20:11.222Z,21.40
2023-05-20T23:23:33.680Z,21.30
2023-05-20T23:26:56.010Z,21.40
2023-05-20T23:30:18.340Z,21.30
2023-05-20T23:33:40.736Z,21.30
2023-05-20T23:37:03.246Z,21.30
2023-05-20T23:40:26.029Z,21.30
2023-05-20T23:43:48.546Z,21.30
2023-05-20T23:47:13.352Z,21.30
2023-05-20T23:50:35.892Z,21.30
2023-05-20T23:53:58.262Z,21.30
2023-05-20T23:57:20.832Z,21.30
